Time;durP1;ratioP1;P1;durP2;ratioP2;P2;SDS_P1;SDS_P2;PMS_P1;PMS_P2;Temp;Humidity;BMP_temperature;BMP_pressure;BME280_temperature;BME280_humidity;BME280_pressure;Samples;Min_cycle;Max_cycle;Signal;HPM_P1;HPM_P2
2021/09/16 00:00:17;;;;;;;7.73;2.10;;;17.50;99.90;;;;;;6089686;23;20562;-84
2021/09/16 00:03:01;;;;;;;2.30;2.10;;;17.50;99.90;;;;;;6090697;23;20527;-84
2021/09/16 00:05:48;;;;;;;1.67;1.57;;;17.50;99.90;;;;;;6088525;23;20566;-84
2021/09/16 00:08:27;;;;;;;2.20;1.50;;;17.50;99.90;;;;;;6089630;23;20554;-84
2021/09/16 00:11:16;;;;;;;2.47;2.27;;;17.50;99.90;;;;;;6088739;23;20669;-84
2021/09/16 00:13:57;;;;;;;2.40;1.80;;;17.50;99.90;;;;;;6090080;23;20654;-84
2021/09/16 00:16:37;;;;;;;2.10;2.00;;;17.40;99.90;;;;;;6089234;23;20625;-85
2021/09/16 00:19:23;;;;;;;1.90;1.80;;;17.50;99.90;;;;;;6088796;23;20610;-84
2021/09/16 00:22:01;;;;;;;3.10;1.60;;;17.50;99.90;;;;;;6089916;23;21126;-84
2021/09/16 00:24:40;;;;;;;3.33;2.43;;;17.50;99.90;;;;;;6090222;23;20610;-84
2021/09/16 00:27:20;;;;;;;1.80;1.70;;;17.50;99.90;;;;;;6088052;23;20625;-84
2021/09/16 00:30:09;;;;;;;2.40;1.73;;;17.50;99.90;;;;;;6088257;23;20570;-84
2021/09/16 00:32:56;;;;;;;1.67;1.50;;;17.50;99.90;;;;;;6089647;23;20630;-84
2021/09/16 00:35:36;;;;;;;3.50;1.50;;;17.60;99.90;;;;;;6089551;23;20592;-85
2021/09/16 00:38:19;;;;;;;2.17;2.07;;;17.70;99.90;;;;;;6089714;23;20542;-84
2021/09/16 00:41:05;;;;;;;1.93;1.70;;;17.70;99.90;;;;;;6090118;23;20652;-85
2021/09/16 00:43:53;;;;;;;1.77;1.67;;;17.70;99.90;;;;;;6089800;23;21054;-85
2021/09/16 00:46:42;;;;;;;1.83;1.73;;;17.70;99.90;;;;;;6088266;23;20628;-85
2021/09/16 00:49:32;;;;;;;1.60;1.50;;;17.70;99.90;;;;;;6088910;23;20593;-84
2021/09/16 00:52:20;;;;;;;1.80;1.70;;;17.70;99.90;;;;;;6089789;23;20587;-85
2021/09/16 00:55:08;;;;;;;1.43;1.33;;;17.70;99.90;;;;;;6088702;23;20619;-85
2021/09/16 00:57:56;;;;;;;2.20;1.70;;;17.60;99.90;;;;;;6089610;23;20543;-85
2021/09/16 01:00:46;;;;;;;2.10;1.90;;;17.70;99.90;;;;;;6088034;23;20676;-85
2021/09/16 01:03:33;;;;;;;1.90;1.50;;;17.80;99.90;;;;;;6088542;23;20658;-84
2021/09/16 01:06:18;;;;;;;1.77;1.67;;;17.70;99.90;;;;;;6090033;23;20543;-84
2021/09/16 01:09:05;;;;;;;1.70;1.47;;;17.70;99.90;;;;;;6108486;23;20599;-85
2021/09/16 01:11:52;;;;;;;1.83;1.73;;;17.70;99.90;;;;;;6088078;23;21151;-84
2021/09/16 01:14:39;;;;;;;3.17;1.70;;;17.70;99.90;;;;;;6089480;23;21202;-85
2021/09/16 01:17:27;;;;;;;3.27;1.60;;;17.60;99.90;;;;;;6088336;23;20589;-84
2021/09/16 01:20:14;;;;;;;5.53;1.60;;;17.70;99.90;;;;;;6088528;23;20625;-84
2021/09/16 01:23:03;;;;;;;2.97;1.60;;;17.60;99.90;;;;;;6088651;23;20575;-85
2021/09/16 01:25:50;;;;;;;3.03;1.47;;;17.60;99.90;;;;;;6087149;23;20689;-85
2021/09/16 01:28:37;;;;;;;1.60;1.50;;;17.50;99.90;;;;;;6082591;23;21283;-86
2021/09/16 01:31:34;;;;;;;2.33;2.13;;;17.50;99.90;;;;;;6088853;23;20638;-86
2021/09/16 01:34:23;;;;;;;2.37;2.17;;;17.60;99.90;;;;;;6088626;23;20599;-85
2021/09/16 01:37:10;;;;;;;1.70;1.60;;;17.50;99.90;;;;;;6087793;23;20674;-85
2021/09/16 01:39:58;;;;;;;1.73;1.30;;;17.40;99.90;;;;;;6088828;23;21105;-85
2021/09/16 01:42:47;;;;;;;1.53;1.43;;;17.40;99.90;;;;;;6089928;23;20614;-84
2021/09/16 01:45:34;;;;;;;2.80;2.07;;;17.40;99.90;;;;;;6088380;23;20681;-84
2021/09/16 01:48:21;;;;;;;2.10;1.93;;;17.40;99.90;;;;;;6088855;23;21049;-84
2021/09/16 01:51:08;;;;;;;2.90;2.70;;;17.30;99.90;;;;;;6088451;23;20643;-84
2021/09/16 01:53:55;;;;;;;4.23;1.80;;;17.30;99.90;;;;;;6088123;23;20649;-84
2021/09/16 01:56:43;;;;;;;1.73;1.63;;;17.30;99.90;;;;;;6088938;23;21181;-84
2021/09/16 01:59:30;;;;;;;3.13;1.53;;;17.30;99.90;;;;;;6089583;23;20697;-84
2021/09/16 02:02:17;;;;;;;2.23;2.10;;;17.30;99.90;;;;;;6081642;23;21243;-84
2021/09/16 02:05:04;;;;;;;2.00;1.70;;;17.30;99.90;;;;;;6087997;23;20598;-84
2021/09/16 02:07:51;;;;;;;2.20;2.00;;;17.30;99.90;;;;;;6088724;23;20630;-84
2021/09/16 02:10:38;;;;;;;2.93;2.00;;;17.30;99.90;;;;;;6088118;23;20587;-84
2021/09/16 02:13:22;;;;;;;3.10;1.73;;;17.30;99.90;;;;;;6088946;23;20682;-84
2021/09/16 02:16:09;;;;;;;1.60;1.50;;;17.30;99.90;;;;;;6082746;23;20648;-83
2021/09/16 02:18:56;;;;;;;1.97;1.87;;;17.30;99.90;;;;;;6088370;23;20617;-84
2021/09/16 02:21:43;;;;;;;1.87;1.77;;;17.30;99.90;;;;;;6087579;23;20652;-84
2021/09/16 02:24:19;;;;;;;1.70;1.60;;;17.30;99.90;;;;;;6089262;23;20541;-84
2021/09/16 02:27:06;;;;;;;2.00;1.90;;;17.20;99.90;;;;;;6088440;23;20630;-84
2021/09/16 02:29:54;;;;;;;1.77;1.67;;;17.20;99.90;;;;;;6087928;23;20906;-84
2021/09/16 02:32:41;;;;;;;2.57;2.33;;;17.20;99.90;;;;;;6087905;23;20606;-84
2021/09/16 02:35:28;;;;;;;2.37;2.17;;;17.20;99.90;;;;;;6080846;23;20618;-83
2021/09/16 02:38:15;;;;;;;1.77;1.67;;;17.20;99.90;;;;;;6088519;23;20681;-84
2021/09/16 02:41:02;;;;;;;2.27;1.87;;;17.20;99.90;;;;;;6088052;23;20611;-83
2021/09/16 02:43:49;;;;;;;1.93;1.83;;;17.20;99.90;;;;;;6089301;23;21170;-84
2021/09/16 02:46:37;;;;;;;2.27;1.83;;;17.20;99.90;;;;;;6086885;23;20614;-83
2021/09/16 02:49:24;;;;;;;2.70;2.10;;;17.10;99.90;;;;;;6087875;23;21093;-83
2021/09/16 02:52:11;;;;;;;2.80;1.77;;;17.10;99.90;;;;;;6088129;23;20740;-83
2021/09/16 02:54:58;;;;;;;2.30;2.10;;;17.10;99.90;;;;;;6080958;23;20738;-84
2021/09/16 02:57:45;;;;;;;3.07;2.27;;;17.10;99.90;;;;;;6087224;23;20622;-84
2021/09/16 03:00:32;;;;;;;2.00;1.80;;;17.10;99.90;;;;;;6087983;23;20684;-84
2021/09/16 03:03:20;;;;;;;2.10;1.90;;;17.10;99.90;;;;;;6087582;23;20622;-84
2021/09/16 03:06:07;;;;;;;1.73;1.63;;;17.10;99.90;;;;;;6088052;23;21119;-84
2021/09/16 03:08:54;;;;;;;2.63;2.00;;;17.10;99.90;;;;;;6087644;23;20614;-84
2021/09/16 03:11:41;;;;;;;2.90;2.13;;;17.10;99.90;;;;;;6087936;23;20621;-84
2021/09/16 03:14:30;;;;;;;2.50;1.90;;;17.10;99.90;;;;;;6087572;23;20720;-83
2021/09/16 03:17:17;;;;;;;2.90;1.83;;;17.10;99.90;;;;;;6087435;23;20939;-84
2021/09/16 03:20:06;;;;;;;2.07;1.90;;;17.10;99.90;;;;;;6087267;23;20620;-84
2021/09/16 03:22:53;;;;;;;3.63;2.03;;;17.10;99.90;;;;;;6088053;23;20605;-84
2021/09/16 03:25:38;;;;;;;2.87;1.77;;;17.10;99.90;;;;;;6088273;23;20531;-84
2021/09/16 03:28:24;;;;;;;3.33;1.97;;;17.10;99.90;;;;;;6088137;23;20596;-83
2021/09/16 03:31:07;;;;;;;2.30;2.10;;;17.10;99.90;;;;;;6082529;23;20620;-84
2021/09/16 03:33:54;;;;;;;2.23;1.60;;;17.10;99.90;;;;;;6088432;23;20684;-84
2021/09/16 03:36:43;;;;;;;2.43;2.00;;;17.10;99.90;;;;;;6088067;23;20657;-84
2021/09/16 03:39:31;;;;;;;4.10;2.60;;;17.10;99.90;;;;;;6088639;23;20583;-84
2021/09/16 03:42:18;;;;;;;2.23;2.03;;;17.20;99.90;;;;;;6089478;23;20982;-84
2021/09/16 03:45:06;;;;;;;2.13;1.97;;;17.20;99.90;;;;;;6088475;23;21120;-84
2021/09/16 03:47:57;;;;;;;2.30;2.10;;;17.20;99.90;;;;;;6082905;23;21187;-84
2021/09/16 03:50:44;;;;;;;2.17;1.80;;;17.30;99.90;;;;;;6088695;23;21230;-84
2021/09/16 03:53:32;;;;;;;2.10;1.90;;;17.20;99.90;;;;;;6089980;23;20630;-83
2021/09/16 03:56:19;;;;;;;1.90;1.80;;;17.30;99.90;;;;;;6089952;23;21183;-83
2021/09/16 03:59:06;;;;;;;3.20;2.17;;;17.30;99.90;;;;;;6089045;23;21225;-83
2021/09/16 04:01:53;;;;;;;2.00;1.80;;;17.20;99.90;;;;;;6088389;23;20685;-83
2021/09/16 04:04:40;;;;;;;2.20;2.10;;;17.30;99.90;;;;;;6090462;23;21155;-83
2021/09/16 04:07:30;;;;;;;2.60;2.07;;;17.30;99.90;;;;;;6081545;23;20696;-83
2021/09/16 04:10:18;;;;;;;3.40;2.40;;;17.30;99.90;;;;;;6088660;23;20598;-83
2021/09/16 04:13:06;;;;;;;3.70;2.47;;;17.20;99.90;;;;;;6088600;23;21229;-83
2021/09/16 04:15:53;;;;;;;2.47;2.27;;;17.20;99.90;;;;;;6088878;23;20675;-83
2021/09/16 04:18:40;;;;;;;2.60;2.40;;;17.20;99.90;;;;;;6086998;23;20728;-83
2021/09/16 04:21:27;;;;;;;2.30;2.10;;;17.20;99.90;;;;;;6088939;23;20578;-83
2021/09/16 04:24:16;;;;;;;2.00;1.87;;;17.20;99.90;;;;;;6088528;23;20602;-83
2021/09/16 04:27:05;;;;;;;2.00;1.90;;;17.20;99.90;;;;;;6088829;23;21233;-83
2021/09/16 04:29:52;;;;;;;2.57;2.33;;;17.20;99.90;;;;;;6088201;23;20690;-83
2021/09/16 04:32:33;;;;;;;3.23;2.97;;;17.20;99.90;;;;;;6090051;23;20592;-82
2021/09/16 04:35:20;;;;;;;3.07;2.70;;;17.20;99.90;;;;;;6089311;23;21548;-83
2021/09/16 04:38:07;;;;;;;3.10;2.90;;;17.20;99.90;;;;;;6081134;23;20614;-82
2021/09/16 04:40:54;;;;;;;3.10;2.80;;;17.20;99.90;;;;;;6088306;23;21262;-82
2021/09/16 04:43:42;;;;;;;4.50;2.00;;;17.20;99.90;;;;;;6089967;23;21063;-83
2021/09/16 04:46:29;;;;;;;2.23;2.03;;;17.10;99.90;;;;;;6088777;23;20629;-83
2021/09/16 04:49:16;;;;;;;2.23;2.13;;;17.20;99.90;;;;;;6088502;23;20678;-82
2021/09/16 04:51:55;;;;;;;6.00;3.17;;;17.20;99.90;;;;;;6089236;23;20589;-83
2021/09/16 04:54:42;;;;;;;4.00;2.30;;;17.20;99.90;;;;;;6081924;23;20695;-83
2021/09/16 04:57:29;;;;;;;3.30;2.77;;;17.20;99.90;;;;;;6087841;23;20578;-83
2021/09/16 05:00:17;;;;;;;2.43;2.33;;;17.10;99.90;;;;;;6089804;23;20629;-83
2021/09/16 05:03:04;;;;;;;4.40;3.50;;;17.10;99.90;;;;;;6088642;23;20603;-83
2021/09/16 05:05:46;;;;;;;3.20;2.70;;;17.10;99.90;;;;;;6089823;23;20618;-83
2021/09/16 05:08:33;;;;;;;3.20;2.37;;;17.10;99.90;;;;;;6087865;23;20586;-83
2021/09/16 05:11:20;;;;;;;4.90;3.13;;;17.00;99.90;;;;;;6089512;23;20748;-84
2021/09/16 05:14:07;;;;;;;2.90;2.53;;;17.10;99.90;;;;;;6088612;23;20606;-85
2021/09/16 05:16:56;;;;;;;2.90;2.70;;;17.10;99.90;;;;;;6087745;23;20651;-85
2021/09/16 05:19:43;;;;;;;3.70;3.40;;;17.10;99.90;;;;;;6089027;23;20581;-85
2021/09/16 05:22:32;;;;;;;3.80;3.50;;;17.10;99.90;;;;;;6087975;23;20722;-87
2021/09/16 05:25:21;;;;;;;2.67;2.47;;;17.20;99.90;;;;;;6088578;23;20578;-88
2021/09/16 05:28:08;;;;;;;4.80;3.20;;;17.10;99.90;;;;;;6087365;23;20625;-87
2021/09/16 05:31:01;;;;;;;3.00;2.80;;;17.10;99.90;;;;;;6084557;23;20629;-87
2021/09/16 05:33:54;;;;;;;7.40;2.90;;;17.10;99.90;;;;;;6086499;23;20608;-89
2021/09/16 05:36:41;;;;;;;4.83;3.33;;;17.10;99.90;;;;;;6086519;23;21204;-87
2021/09/16 05:39:28;;;;;;;5.70;2.70;;;17.10;99.90;;;;;;6087713;23;20627;-86
2021/09/16 05:42:15;;;;;;;3.57;2.80;;;17.10;99.90;;;;;;6087440;23;20570;-85
2021/09/16 05:45:02;;;;;;;5.30;3.10;;;17.10;99.90;;;;;;6087601;23;20616;-85
2021/09/16 05:47:52;;;;;;;7.70;4.23;;;17.10;99.90;;;;;;6081231;23;20598;-85
2021/09/16 05:50:40;;;;;;;5.80;3.13;;;17.10;99.90;;;;;;6088906;23;20636;-85
2021/09/16 05:53:27;;;;;;;3.73;3.37;;;17.10;99.90;;;;;;6088194;23;20614;-85
2021/09/16 05:56:14;;;;;;;3.13;2.80;;;17.10;99.90;;;;;;6086058;23;20678;-85
2021/09/16 05:59:01;;;;;;;5.83;3.50;;;17.10;99.90;;;;;;6088615;23;20606;-85
2021/09/16 06:01:48;;;;;;;4.00;3.20;;;17.10;99.90;;;;;;6088214;23;21060;-85
2021/09/16 06:04:35;;;;;;;3.60;3.33;;;17.10;99.90;;;;;;6085256;23;21375;-85
2021/09/16 06:07:23;;;;;;;3.57;3.30;;;17.10;99.90;;;;;;6088538;23;20552;-84
2021/09/16 06:10:05;;;;;;;4.20;3.50;;;17.10;99.90;;;;;;6088280;23;20570;-85
2021/09/16 06:12:52;;;;;;;5.20;3.80;;;17.10;99.90;;;;;;6086862;23;21139;-85
2021/09/16 06:15:39;;;;;;;6.73;4.47;;;17.20;99.90;;;;;;6087177;23;20653;-85
2021/09/16 06:18:26;;;;;;;5.20;3.80;;;17.20;99.90;;;;;;6088328;23;20602;-85
2021/09/16 06:21:13;;;;;;;3.80;3.40;;;17.20;99.90;;;;;;6089149;23;20601;-85
2021/09/16 06:24:01;;;;;;;4.57;3.57;;;17.20;99.90;;;;;;6085988;23;20573;-84
2021/09/16 06:26:43;;;;;;;5.17;3.87;;;17.30;99.90;;;;;;6088305;23;20605;-85
2021/09/16 06:29:30;;;;;;;4.30;3.67;;;17.30;99.90;;;;;;6086162;23;20728;-85
2021/09/16 06:32:17;;;;;;;3.57;3.20;;;17.40;99.90;;;;;;6087326;23;20709;-85
2021/09/16 06:35:05;;;;;;;4.37;3.97;;;17.40;99.90;;;;;;6087598;23;21224;-85
2021/09/16 06:37:52;;;;;;;6.83;4.23;;;17.40;99.90;;;;;;6086934;23;20602;-86
2021/09/16 06:40:34;;;;;;;11.13;4.57;;;17.40;99.90;;;;;;6089700;23;20919;-86
2021/09/16 06:43:21;;;;;;;3.97;3.53;;;17.50;99.90;;;;;;6089551;23;20601;-84
2021/09/16 06:46:06;;;;;;;3.50;3.20;;;17.50;99.90;;;;;;6090787;22;21127;-87
2021/09/16 06:48:50;;;;;;;3.43;3.13;;;17.60;99.90;;;;;;6088085;22;20655;-87
2021/09/16 06:51:31;;;;;;;3.80;3.40;;;17.60;99.90;;;;;;6088061;22;20609;-87
2021/09/16 06:54:14;;;;;;;4.30;3.90;;;17.50;99.90;;;;;;6091543;22;20918;-86
2021/09/16 06:57:02;;;;;;;6.80;4.00;;;17.50;99.90;;;;;;6090855;23;20648;-87
2021/09/16 06:59:49;;;;;;;3.77;3.30;;;17.40;99.90;;;;;;6091925;23;21151;-87
2021/09/16 07:02:36;;;;;;;3.80;3.43;;;17.40;99.90;;;;;;6091697;23;20562;-87
2021/09/16 07:05:18;;;;;;;6.07;2.90;;;17.40;99.90;;;;;;6092725;23;20575;-87
2021/09/16 07:08:02;;;;;;;3.67;3.37;;;17.50;99.90;;;;;;6091614;23;20562;-87
2021/09/16 07:10:46;;;;;;;4.60;3.13;;;17.50;99.90;;;;;;6093461;23;20973;-87
2021/09/16 07:13:24;;;;;;;4.73;3.87;;;17.50;99.90;;;;;;6090201;23;20578;-87
2021/09/16 07:16:05;;;;;;;4.00;3.37;;;17.50;99.90;;;;;;6093468;22;20701;-87
2021/09/16 07:18:52;;;;;;;3.97;2.97;;;17.50;99.90;;;;;;6087002;23;20590;-85
2021/09/16 07:21:39;;;;;;;5.10;3.00;;;17.50;99.90;;;;;;6091003;23;20571;-86
2021/09/16 07:24:26;;;;;;;5.97;3.23;;;17.50;99.90;;;;;;6093013;23;21116;-87
2021/09/16 07:27:07;;;;;;;4.50;3.77;;;17.40;99.90;;;;;;6092723;22;20587;-84
2021/09/16 07:29:50;;;;;;;5.70;4.23;;;17.40;99.90;;;;;;6091713;22;20693;-86
2021/09/16 07:32:25;;;;;;;10.43;9.33;;;17.50;99.90;;;;;;6092880;22;20590;-86
2021/09/16 07:35:02;;;;;;;6.20;5.60;;;17.50;99.90;;;;;;6092888;23;21097;-86
2021/09/16 07:37:49;;;;;;;5.43;3.90;;;17.50;99.90;;;;;;6091260;23;20582;-86
2021/09/16 07:40:29;;;;;;;3.23;2.93;;;17.50;99.90;;;;;;6091675;23;20609;-86
2021/09/16 07:43:16;;;;;;;3.57;2.90;;;17.50;99.90;;;;;;6091748;23;20625;-87
2021/09/16 07:46:05;;;;;;;2.97;2.67;;;17.40;99.90;;;;;;6092598;23;20595;-88
2021/09/16 07:48:52;;;;;;;2.73;2.53;;;17.40;99.90;;;;;;6092018;23;20655;-88
2021/09/16 07:51:39;;;;;;;3.47;3.17;;;17.40;99.90;;;;;;6092943;23;20591;-87
2021/09/16 07:54:20;;;;;;;3.30;3.00;;;17.40;99.90;;;;;;6092458;23;20653;-87
2021/09/16 07:57:08;;;;;;;3.37;2.60;;;17.40;99.90;;;;;;6092298;23;20597;-89
2021/09/16 07:59:44;;;;;;;3.90;3.60;;;17.30;99.90;;;;;;6092773;22;20574;-88
2021/09/16 08:02:32;;;;;;;3.03;2.83;;;17.30;99.90;;;;;;6091205;23;20636;-87
2021/09/16 08:05:10;;;;;;;2.20;2.00;;;17.30;99.90;;;;;;6094514;23;20601;-86
2021/09/16 08:07:57;;;;;;;2.93;2.63;;;17.10;99.90;;;;;;6091915;23;21178;-85
2021/09/16 08:10:44;;;;;;;4.43;1.63;;;17.10;99.90;;;;;;6091587;23;21139;-84
2021/09/16 08:13:19;;;;;;;2.27;1.80;;;17.20;99.90;;;;;;6093694;22;20919;-86
2021/09/16 08:16:06;;;;;;;4.00;1.40;;;17.20;99.90;;;;;;6089847;23;20754;-89
2021/09/16 08:18:49;;;;;;;1.20;1.10;;;17.10;99.90;;;;;;6093483;22;20585;-89
2021/09/16 08:21:31;;;;;;;1.50;1.40;;;17.10;99.90;;;;;;6090841;23;20648;-87
2021/09/16 08:24:11;;;;;;;1.20;1.20;;;17.00;99.90;;;;;;6093972;23;20599;-88
2021/09/16 08:26:52;;;;;;;4.70;1.57;;;16.90;99.90;;;;;;6094033;23;20537;-88
2021/09/16 08:29:42;;;;;;;1.90;1.77;;;16.90;99.90;;;;;;6092679;23;20601;-88
2021/09/16 08:32:31;;;;;;;1.20;1.20;;;17.00;99.90;;;;;;6091361;23;21171;-88
2021/09/16 08:35:20;;;;;;;1.47;1.37;;;17.10;99.90;;;;;;6093339;23;20713;-89
2021/09/16 08:38:07;;;;;;;1.10;1.00;;;17.00;99.90;;;;;;6092763;23;20585;-89
2021/09/16 08:40:54;;;;;;;1.07;0.80;;;17.00;99.90;;;;;;6092322;23;20589;-90
2021/09/16 08:43:42;;;;;;;0.80;0.80;;;17.00;99.90;;;;;;6093893;23;20605;-86
2021/09/16 08:46:29;;;;;;;0.70;0.70;;;16.90;99.90;;;;;;6092459;22;20581;-87
2021/09/16 08:49:16;;;;;;;0.90;0.90;;;17.00;99.90;;;;;;6092312;23;20609;-89
2021/09/16 08:52:08;;;;;;;2.40;0.80;;;17.00;99.90;;;;;;6092514;23;20586;-87
2021/09/16 08:54:56;;;;;;;0.77;0.77;;;17.10;99.90;;;;;;6094476;22;20591;-87
2021/09/16 08:57:37;;;;;;;0.80;0.80;;;17.00;99.90;;;;;;6093149;22;20569;-87
2021/09/16 09:00:22;;;;;;;0.80;0.80;;;16.90;99.90;;;;;;6094412;22;20577;-86
2021/09/16 09:03:09;;;;;;;0.87;0.87;;;16.80;99.90;;;;;;6092944;23;20567;-85
2021/09/16 09:05:50;;;;;;;0.77;0.77;;;16.70;99.90;;;;;;6094034;23;20619;-86
2021/09/16 09:08:36;;;;;;;3.30;1.20;;;16.60;99.90;;;;;;6094545;23;20541;-86
2021/09/16 09:11:14;;;;;;;1.67;1.17;;;16.60;99.90;;;;;;6094794;22;20593;-87
2021/09/16 09:13:58;;;;;;;1.60;1.50;;;16.50;99.90;;;;;;6094586;22;20570;-87
2021/09/16 09:16:43;;;;;;;1.27;0.70;;;16.50;99.90;;;;;;6094258;23;20665;-87
2021/09/16 09:19:22;;;;;;;0.80;0.80;;;16.40;99.90;;;;;;6094171;23;20536;-87
2021/09/16 09:22:08;;;;;;;1.00;0.90;;;16.50;99.90;;;;;;6094331;23;20543;-86
2021/09/16 09:25:01;;;;;;;2.03;1.83;;;16.40;99.90;;;;;;6093325;23;20995;-87
2021/09/16 09:27:49;;;;;;;1.07;1.00;;;16.30;99.90;;;;;;6092966;23;20583;-85
2021/09/16 09:30:40;;;;;;;2.40;1.77;;;16.30;99.90;;;;;;6087424;23;20611;-86
2021/09/16 09:33:14;;;;;;;2.87;2.67;;;16.20;99.90;;;;;;6094916;22;20636;-87
2021/09/16 09:36:08;;;;;;;4.73;3.80;;;16.00;99.90;;;;;;6093023;22;20643;-88
2021/09/16 09:38:55;;;;;;;5.20;3.90;;;16.10;99.90;;;;;;6094482;22;20579;-87
2021/09/16 09:41:37;;;;;;;4.67;4.07;;;16.20;99.90;;;;;;6094025;23;20597;-88
2021/09/16 09:44:23;;;;;;;4.17;3.77;;;16.20;99.90;;;;;;6094907;23;20576;-89
2021/09/16 09:47:00;;;;;;;4.83;3.27;;;16.20;99.90;;;;;;6094719;22;20921;-87
2021/09/16 09:49:58;;;;;;;3.37;3.07;;;16.20;99.90;;;;;;6089265;23;20602;-87
2021/09/16 09:52:45;;;;;;;3.70;3.30;;;16.20;99.90;;;;;;6092555;23;20948;-87
2021/09/16 09:55:27;;;;;;;3.57;3.27;;;16.30;99.90;;;;;;6093992;22;20672;-87
2021/09/16 09:58:16;;;;;;;5.53;5.03;;;16.30;99.90;;;;;;6092277;23;20666;-88
2021/09/16 10:00:48;;;;;;;6.10;5.50;;;16.40;99.90;;;;;;6094014;22;20580;-86
2021/09/16 10:03:35;;;;;;;6.67;6.07;;;16.30;99.90;;;;;;6094034;23;20596;-87
2021/09/16 10:06:14;;;;;;;8.20;6.10;;;16.20;99.90;;;;;;6094165;22;21157;-86
2021/09/16 10:09:09;;;;;;;6.80;5.87;;;16.00;99.90;;;;;;6093788;22;20610;-85
2021/09/16 10:11:58;;;;;;;9.17;7.33;;;16.10;99.90;;;;;;6094506;22;20658;-87
2021/09/16 10:14:40;;;;;;;8.60;7.17;;;16.10;99.90;;;;;;6093509;22;20599;-87
2021/09/16 10:17:17;;;;;;;8.20;6.60;;;16.20;99.90;;;;;;6093217;23;20602;-86
2021/09/16 10:20:00;;;;;;;9.57;7.87;;;16.10;99.90;;;;;;6091638;22;20611;-87
2021/09/16 10:22:48;;;;;;;11.80;9.07;;;16.00;99.90;;;;;;6092047;23;20584;-84
2021/09/16 10:25:33;;;;;;;9.13;8.20;;;16.00;99.90;;;;;;6094034;23;20573;-86
2021/09/16 10:28:08;;;;;;;12.23;9.50;;;15.90;99.90;;;;;;6092756;22;20622;-85
2021/09/16 10:30:49;;;;;;;11.60;9.60;;;15.90;99.90;;;;;;6094590;23;20562;-87
2021/09/16 10:33:33;;;;;;;11.23;9.97;;;16.00;99.90;;;;;;6092942;22;21091;-84
2021/09/16 10:36:11;;;;;;;12.90;10.33;;;16.00;99.90;;;;;;6093330;22;20606;-87
2021/09/16 10:38:46;;;;;;;11.77;9.67;;;16.10;99.90;;;;;;6094181;23;20577;-84
2021/09/16 10:41:32;;;;;;;13.43;10.90;;;16.20;99.90;;;;;;6094828;23;20532;-85
2021/09/16 10:44:22;;;;;;;11.20;10.10;;;16.20;99.90;;;;;;6092300;23;21119;-85
2021/09/16 10:47:16;;;;;;;12.73;9.83;;;16.00;99.90;;;;;;6094380;23;20572;-84
2021/09/16 10:50:19;;;;;;;13.90;10.90;;;15.90;99.90;;;;;;6094166;23;20645;-84
2021/09/16 10:53:36;;;;;;;12.70;10.90;;;15.90;99.90;;;;;;6094664;23;20548;-83
2021/09/16 10:56:41;;;;;;;13.73;12.17;;;16.10;99.90;;;;;;6094256;23;21033;-84
2021/09/16 10:59:20;;;;;;;15.17;12.20;;;16.20;99.90;;;;;;6093293;23;20574;-84
2021/09/16 11:02:01;;;;;;;15.77;12.63;;;16.10;99.90;;;;;;6093899;23;20686;-84
2021/09/16 11:05:07;;;;;;;16.40;13.70;;;15.90;99.90;;;;;;6092783;23;20570;-83
2021/09/16 11:07:55;;;;;;;16.83;13.47;;;16.00;99.90;;;;;;6093843;23;20581;-84
2021/09/16 11:10:47;;;;;;;16.87;13.90;;;16.00;99.90;;;;;;6092700;23;21111;-85
2021/09/16 11:13:42;;;;;;;16.13;12.63;;;16.00;99.90;;;;;;6091767;23;20607;-84
2021/09/16 11:16:25;;;;;;;16.27;12.97;;;16.00;99.90;;;;;;6093922;22;20605;-84
2021/09/16 11:19:06;;;;;;;15.07;12.90;;;16.20;99.90;;;;;;6090607;23;20646;-84
2021/09/16 11:21:43;;;;;;;20.70;14.73;;;16.20;99.90;;;;;;6091262;23;20585;-84
2021/09/16 11:24:16;;;;;;;16.80;13.57;;;16.20;99.90;;;;;;6093544;23;20903;-84
2021/09/16 11:27:07;;;;;;;15.30;13.10;;;16.20;99.90;;;;;;6093266;23;20667;-84
2021/09/16 11:29:48;;;;;;;17.30;13.90;;;16.10;99.90;;;;;;6092330;23;20591;-84
2021/09/16 11:32:40;;;;;;;18.57;14.17;;;16.40;99.90;;;;;;6091184;23;20591;-84
2021/09/16 11:35:24;;;;;;;15.53;13.50;;;16.50;99.90;;;;;;6092630;23;20569;-83
2021/09/16 11:38:05;;;;;;;18.13;14.23;;;16.50;99.90;;;;;;6092192;23;20695;-84
2021/09/16 11:40:50;;;;;;;16.27;13.70;;;16.40;99.90;;;;;;6093262;23;20589;-84
2021/09/16 11:43:23;;;;;;;16.40;12.30;;;16.50;99.90;;;;;;6093145;23;20589;-84
2021/09/16 11:45:56;;;;;;;18.23;13.63;;;16.50;99.90;;;;;;6093407;23;20571;-83
2021/09/16 11:48:38;;;;;;;17.53;13.87;;;16.70;99.90;;;;;;6092784;23;21056;-85
2021/09/16 11:51:14;;;;;;;19.23;14.10;;;16.90;99.90;;;;;;6093016;23;20621;-84
2021/09/16 11:53:49;;;;;;;15.60;12.90;;;17.00;99.90;;;;;;6093365;23;20542;-84
2021/09/16 11:56:23;;;;;;;18.17;14.73;;;17.00;99.90;;;;;;6091292;23;20655;-83
2021/09/16 11:59:09;;;;;;;16.03;13.03;;;17.00;99.90;;;;;;6092495;23;20541;-84
2021/09/16 12:01:41;;;;;;;15.87;12.80;;;17.00;99.90;;;;;;6094680;23;20542;-84
2021/09/16 12:04:20;;;;;;;16.47;13.57;;;17.30;99.90;;;;;;6093726;23;20880;-83
2021/09/16 12:06:56;;;;;;;19.00;14.57;;;17.30;99.90;;;;;;6092850;23;20655;-83
2021/09/16 12:09:37;;;;;;;18.67;15.40;;;17.20;99.90;;;;;;6094517;23;20593;-84
2021/09/16 12:12:17;;;;;;;16.50;14.70;;;17.10;99.90;;;;;;6094531;23;20602;-84
2021/09/16 12:14:49;;;;;;;18.40;15.63;;;17.10;99.90;;;;;;6094456;23;20678;-84
2021/09/16 12:17:26;;;;;;;17.40;15.60;;;17.00;99.90;;;;;;6094637;23;20989;-84
2021/09/16 12:20:13;;;;;;;18.10;15.83;;;16.90;99.90;;;;;;6093719;23;20586;-84
2021/09/16 12:22:58;;;;;;;17.93;15.27;;;16.70;99.90;;;;;;6093899;23;20601;-84
2021/09/16 12:25:56;;;;;;;18.27;16.37;;;16.70;99.90;;;;;;6094928;23;20526;-84
2021/09/16 12:29:00;;;;;;;19.10;17.00;;;16.60;99.90;;;;;;6094217;23;20598;-85
2021/09/16 12:31:39;;;;;;;20.47;16.47;;;16.40;99.90;;;;;;6094691;23;20597;-84
2021/09/16 12:34:16;;;;;;;19.97;16.27;;;16.60;99.90;;;;;;6094257;23;20562;-85
2021/09/16 12:36:53;;;;;;;21.47;17.37;;;16.40;99.90;;;;;;6091397;23;20975;-85
2021/09/16 12:39:43;;;;;;;19.50;16.83;;;16.50;99.90;;;;;;6094597;23;20576;-84
2021/09/16 12:42:27;;;;;;;21.57;16.20;;;16.60;99.90;;;;;;6093769;23;20688;-84
2021/09/16 12:45:08;;;;;;;22.23;17.90;;;16.50;99.90;;;;;;6093924;23;20652;-83
2021/09/16 12:47:46;;;;;;;21.43;16.87;;;16.40;99.90;;;;;;6094229;23;20612;-84
2021/09/16 12:50:27;;;;;;;24.83;18.90;;;16.30;99.90;;;;;;6094827;23;20561;-84
2021/09/16 12:53:15;;;;;;;25.53;17.97;;;16.40;99.90;;;;;;6093499;23;20541;-85
2021/09/16 12:56:08;;;;;;;21.07;17.03;;;16.30;99.90;;;;;;6094645;23;20593;-84
2021/09/16 12:58:46;;;;;;;19.20;16.83;;;16.30;99.90;;;;;;6094482;23;20562;-84
2021/09/16 13:01:33;;;;;;;20.60;16.03;;;16.30;99.90;;;;;;6093526;23;20581;-85
2021/09/16 13:04:19;;;;;;;21.00;16.33;;;16.40;99.90;;;;;;6092251;23;20616;-84
2021/09/16 13:07:12;;;;;;;22.80;17.93;;;16.60;99.90;;;;;;6094509;23;21086;-84
2021/09/16 13:09:44;;;;;;;19.87;17.67;;;16.60;99.90;;;;;;6093998;23;20635;-85
2021/09/16 13:12:21;;;;;;;21.40;16.40;;;16.70;99.90;;;;;;6094568;23;20574;-85
2021/09/16 13:18:05;;;;;;;27.83;18.87;;;16.70;99.90;;;;;;6092501;23;20627;-84
2021/09/16 13:20:44;;;;;;;21.27;17.07;;;16.70;99.90;;;;;;6095007;23;20558;-85
2021/09/16 13:23:31;;;;;;;22.57;17.00;;;16.80;99.90;;;;;;6094032;23;20585;-84
2021/09/16 13:26:15;;;;;;;22.93;18.73;;;16.90;99.90;;;;;;6094544;23;20530;-85
2021/09/16 13:29:04;;;;;;;23.17;17.40;;;16.80;99.90;;;;;;6091520;23;20635;-85
2021/09/16 13:31:55;;;;;;;26.37;20.00;;;16.80;99.90;;;;;;6093767;23;20608;-84
2021/09/16 13:34:42;;;;;;;20.90;16.33;;;16.60;99.90;;;;;;6091419;23;20636;-84
2021/09/16 13:37:15;;;;;;;27.47;18.03;;;16.50;99.90;;;;;;6094393;23;20573;-83
2021/09/16 13:39:56;;;;;;;22.23;19.33;;;16.50;99.90;;;;;;6095009;23;20617;-85
2021/09/16 13:42:44;;;;;;;28.17;19.10;;;16.50;99.90;;;;;;6092057;23;20711;-86
2021/09/16 13:45:31;;;;;;;24.83;21.93;;;16.60;99.90;;;;;;6092012;23;20578;-86
2021/09/16 13:48:15;;;;;;;24.57;19.80;;;16.50;99.90;;;;;;6086560;23;20621;-85
2021/09/16 13:51:00;;;;;;;26.17;20.80;;;16.50;99.90;;;;;;6093615;23;21106;-86
2021/09/16 13:53:49;;;;;;;23.57;19.93;;;16.50;99.90;;;;;;6094437;23;20691;-85
2021/09/16 13:56:36;;;;;;;22.93;18.50;;;16.60;99.90;;;;;;6092814;23;20623;-86
2021/09/16 13:59:25;;;;;;;21.57;19.23;;;16.90;99.90;;;;;;6093030;22;20585;-83
2021/09/16 14:02:14;;;;;;;24.63;20.30;;;17.00;99.90;;;;;;6091811;23;20590;-84
2021/09/16 14:05:03;;;;;;;23.07;18.60;;;17.10;99.90;;;;;;6088274;23;20584;-83
2021/09/16 14:07:39;;;;;;;22.57;18.70;;;17.00;99.90;;;;;;6088464;23;21075;-83
2021/09/16 14:10:21;;;;;;;19.57;16.77;;;16.90;99.90;;;;;;6089142;23;21138;-83
2021/09/16 14:13:06;;;;;;;27.13;18.80;;;17.00;99.90;;;;;;6089213;23;20574;-83
2021/09/16 14:15:38;;;;;;;20.07;17.73;;;17.00;99.90;;;;;;6089128;23;21511;-84